sensor_id;sensor_type;location;lat;lon;timestamp;pressure;altitude;pressure_sealevel;temperature;humidity
75536;BME280;64119;52.070;20.804;2023-07-29T00:02:19;99665.40;;;16.83;95.86
75536;BME280;64119;52.070;20.804;2023-07-29T00:04:47;99667.27;;;16.86;96.57
75536;BME280;64119;52.070;20.804;2023-07-29T00:07:14;99669.84;;;16.87;97.68
75536;BME280;64119;52.070;20.804;2023-07-29T00:09:42;99670.27;;;16.87;97.58
75536;BME280;64119;52.070;20.804;2023-07-29T00:12:10;99670.61;;;16.88;96.84
75536;BME280;64119;52.070;20.804;2023-07-29T00:14:38;99676.11;;;16.90;97.09
75536;BME280;64119;52.070;20.804;2023-07-29T00:17:05;99677.83;;;16.90;97.07
75536;BME280;64119;52.070;20.804;2023-07-29T00:19:33;99675.58;;;16.90;97.72
75536;BME280;64119;52.070;20.804;2023-07-29T00:22:01;99683.21;;;16.89;97.47
75536;BME280;64119;52.070;20.804;2023-07-29T00:24:30;99683.25;;;16.88;97.75
75536;BME280;64119;52.070;20.804;2023-07-29T00:26:57;99688.16;;;16.86;97.60
75536;BME280;64119;52.070;20.804;2023-07-29T00:29:25;99687.63;;;16.86;97.37
75536;BME280;64119;52.070;20.804;2023-07-29T00:31:53;99682.48;;;16.86;97.63
75536;BME280;64119;52.070;20.804;2023-07-29T00:34:21;99687.15;;;16.87;97.63
75536;BME280;64119;52.070;20.804;2023-07-29T00:36:49;99689.73;;;16.87;97.91
75536;BME280;64119;52.070;20.804;2023-07-29T00:39:16;99690.70;;;16.88;97.48
75536;BME280;64119;52.070;20.804;2023-07-29T00:41:44;99689.16;;;16.89;97.07
75536;BME280;64119;52.070;20.804;2023-07-29T00:44:12;99689.88;;;16.90;97.20
75536;BME280;64119;52.070;20.804;2023-07-29T00:46:40;99695.77;;;16.90;98.02
75536;BME280;64119;52.070;20.804;2023-07-29T00:49:09;99689.94;;;16.91;98.36
75536;BME280;64119;52.070;20.804;2023-07-29T00:51:37;99684.02;;;16.90;98.09
75536;BME280;64119;52.070;20.804;2023-07-29T00:54:05;99687.30;;;16.89;97.37
75536;BME280;64119;52.070;20.804;2023-07-29T00:56:32;99687.55;;;16.88;97.34
75536;BME280;64119;52.070;20.804;2023-07-29T00:59:02;99687.89;;;16.86;97.05
75536;BME280;64119;52.070;20.804;2023-07-29T01:01:31;99688.35;;;16.84;97.37
75536;BME280;64119;52.070;20.804;2023-07-29T01:03:59;99695.27;;;16.81;97.04
75536;BME280;64119;52.070;20.804;2023-07-29T01:06:50;99694.94;;;16.77;98.07
75536;BME280;64119;52.070;20.804;2023-07-29T01:12:23;99700.58;;;16.71;97.51
75536;BME280;64119;52.070;20.804;2023-07-29T01:17:43;99701.08;;;16.63;97.25
75536;BME280;64119;52.070;20.804;2023-07-29T01:20:14;99702.26;;;16.60;96.96
75536;BME280;64119;52.070;20.804;2023-07-29T01:22:43;99708.83;;;16.55;96.96
75536;BME280;64119;52.070;20.804;2023-07-29T01:25:11;99712.86;;;16.51;96.83
75536;BME280;64119;52.070;20.804;2023-07-29T01:27:41;99713.00;;;16.47;96.62
75536;BME280;64119;52.070;20.804;2023-07-29T01:30:09;99709.36;;;16.44;96.71
75536;BME280;64119;52.070;20.804;2023-07-29T01:35:36;99709.59;;;16.36;97.49
75536;BME280;64119;52.070;20.804;2023-07-29T01:38:26;99708.02;;;16.31;97.62
75536;BME280;64119;52.070;20.804;2023-07-29T01:40:56;99708.73;;;16.29;97.40
75536;BME280;64119;52.070;20.804;2023-07-29T01:43:24;99709.58;;;16.26;97.36
75536;BME280;64119;52.070;20.804;2023-07-29T01:45:53;99714.70;;;16.22;97.81
75536;BME280;64119;52.070;20.804;2023-07-29T01:48:22;99719.36;;;16.20;97.23
75536;BME280;64119;52.070;20.804;2023-07-29T01:50:50;99723.83;;;16.17;97.33
75536;BME280;64119;52.070;20.804;2023-07-29T01:53:18;99725.97;;;16.15;97.23
75536;BME280;64119;52.070;20.804;2023-07-29T01:55:46;99722.15;;;16.11;97.87
75536;BME280;64119;52.070;20.804;2023-07-29T01:58:14;99729.71;;;16.08;97.12
75536;BME280;64119;52.070;20.804;2023-07-29T02:00:46;99727.43;;;16.05;97.01
75536;BME280;64119;52.070;20.804;2023-07-29T02:03:14;99729.98;;;16.01;97.19
75536;BME280;64119;52.070;20.804;2023-07-29T02:05:42;99736.88;;;15.98;96.96
75536;BME280;64119;52.070;20.804;2023-07-29T02:08:11;99740.36;;;15.95;96.95
75536;BME280;64119;52.070;20.804;2023-07-29T02:10:39;99745.17;;;15.91;97.43
75536;BME280;64119;52.070;20.804;2023-07-29T02:13:07;99746.56;;;15.89;96.87
75536;BME280;64119;52.070;20.804;2023-07-29T02:15:35;99749.04;;;15.87;96.98
75536;BME280;64119;52.070;20.804;2023-07-29T02:18:03;99751.48;;;15.86;97.13
75536;BME280;64119;52.070;20.804;2023-07-29T02:20:31;99755.05;;;15.85;96.91
75536;BME280;64119;52.070;20.804;2023-07-29T02:22:59;99753.44;;;15.87;97.01
75536;BME280;64119;52.070;20.804;2023-07-29T02:25:27;99752.19;;;15.90;97.92
75536;BME280;64119;52.070;20.804;2023-07-29T02:27:55;99757.16;;;15.92;97.87
75536;BME280;64119;52.070;20.804;2023-07-29T02:30:23;99756.11;;;15.96;98.74
75536;BME280;64119;52.070;20.804;2023-07-29T02:32:51;99753.09;;;16.01;99.71
75536;BME280;64119;52.070;20.804;2023-07-29T02:35:19;99756.96;;;16.04;99.16
75536;BME280;64119;52.070;20.804;2023-07-29T02:37:46;99759.06;;;16.08;99.03
75536;BME280;64119;52.070;20.804;2023-07-29T02:40:14;99762.93;;;16.11;98.94
75536;BME280;64119;52.070;20.804;2023-07-29T02:42:43;99764.61;;;16.14;99.19
75536;BME280;64119;52.070;20.804;2023-07-29T02:45:10;99765.89;;;16.18;98.63
75536;BME280;64119;52.070;20.804;2023-07-29T02:47:39;99766.92;;;16.21;98.71
75536;BME280;64119;52.070;20.804;2023-07-29T02:50:07;99770.23;;;16.24;99.52
75536;BME280;64119;52.070;20.804;2023-07-29T02:52:35;99773.23;;;16.26;99.23
75536;BME280;64119;52.070;20.804;2023-07-29T02:55:02;99773.45;;;16.29;98.91
75536;BME280;64119;52.070;20.804;2023-07-29T02:57:30;99780.04;;;16.32;99.48
75536;BME280;64119;52.070;20.804;2023-07-29T02:59:58;99777.85;;;16.33;99.78
75536;BME280;64119;52.070;20.804;2023-07-29T03:02:26;99777.67;;;16.34;99.58
75536;BME280;64119;52.070;20.804;2023-07-29T03:04:55;99781.08;;;16.36;99.49
75536;BME280;64119;52.070;20.804;2023-07-29T03:07:22;99782.84;;;16.37;99.40
75536;BME280;64119;52.070;20.804;2023-07-29T03:09:50;99786.92;;;16.38;99.01
75536;BME280;64119;52.070;20.804;2023-07-29T03:12:18;99787.26;;;16.38;99.31
75536;BME280;64119;52.070;20.804;2023-07-29T03:14:47;99788.79;;;16.40;99.30
75536;BME280;64119;52.070;20.804;2023-07-29T03:17:16;99790.86;;;16.41;99.23
75536;BME280;64119;52.070;20.804;2023-07-29T03:21:11;99792.04;;;16.46;99.21
75536;BME280;64119;52.070;20.804;2023-07-29T03:23:39;99794.08;;;16.47;98.63
75536;BME280;64119;52.070;20.804;2023-07-29T03:26:07;99792.27;;;16.48;98.58
75536;BME280;64119;52.070;20.804;2023-07-29T03:28:42;99795.35;;;16.50;98.40
75536;BME280;64119;52.070;20.804;2023-07-29T03:31:10;99795.98;;;16.49;99.33
75536;BME280;64119;52.070;20.804;2023-07-29T03:33:39;99796.35;;;16.48;99.22
75536;BME280;64119;52.070;20.804;2023-07-29T03:36:07;99796.10;;;16.49;98.81
75536;BME280;64119;52.070;20.804;2023-07-29T03:38:35;99794.20;;;16.50;98.41
75536;BME280;64119;52.070;20.804;2023-07-29T03:41:08;99797.59;;;16.53;98.23
75536;BME280;64119;52.070;20.804;2023-07-29T03:43:36;99800.77;;;16.52;98.27
75536;BME280;64119;52.070;20.804;2023-07-29T03:46:04;99801.54;;;16.53;97.96
75536;BME280;64119;52.070;20.804;2023-07-29T03:48:35;99804.03;;;16.54;97.88
75536;BME280;64119;52.070;20.804;2023-07-29T03:51:03;99805.11;;;16.55;97.79
75536;BME280;64119;52.070;20.804;2023-07-29T03:53:31;99808.73;;;16.56;97.61
75536;BME280;64119;52.070;20.804;2023-07-29T03:55:59;99808.77;;;16.55;97.19
75536;BME280;64119;52.070;20.804;2023-07-29T03:58:27;99810.02;;;16.53;97.65
75536;BME280;64119;52.070;20.804;2023-07-29T04:00:54;99812.75;;;16.53;97.27
75536;BME280;64119;52.070;20.804;2023-07-29T04:03:22;99815.48;;;16.54;97.53
75536;BME280;64119;52.070;20.804;2023-07-29T04:05:51;99818.99;;;16.55;96.87
75536;BME280;64119;52.070;20.804;2023-07-29T04:08:20;99820.18;;;16.56;96.81
75536;BME280;64119;52.070;20.804;2023-07-29T04:10:48;99820.14;;;16.56;97.09
75536;BME280;64119;52.070;20.804;2023-07-29T04:13:16;99822.29;;;16.57;97.04
75536;BME280;64119;52.070;20.804;2023-07-29T04:15:44;99825.13;;;16.57;96.66
75536;BME280;64119;52.070;20.804;2023-07-29T04:18:12;99825.72;;;16.57;97.25
75536;BME280;64119;52.070;20.804;2023-07-29T04:20:40;99828.48;;;16.58;97.33
75536;BME280;64119;52.070;20.804;2023-07-29T04:23:08;99829.13;;;16.62;97.49
75536;BME280;64119;52.070;20.804;2023-07-29T04:25:36;99832.63;;;16.65;96.84
75536;BME280;64119;52.070;20.804;2023-07-29T04:28:04;99834.80;;;16.65;96.69
75536;BME280;64119;52.070;20.804;2023-07-29T04:30:32;99833.81;;;16.64;97.07
75536;BME280;64119;52.070;20.804;2023-07-29T04:33:00;99838.39;;;16.67;96.97
75536;BME280;64119;52.070;20.804;2023-07-29T04:35:28;99839.39;;;16.72;97.20
75536;BME280;64119;52.070;20.804;2023-07-29T04:37:56;99841.95;;;16.75;96.97
75536;BME280;64119;52.070;20.804;2023-07-29T04:40:24;99843.96;;;16.77;96.85
75536;BME280;64119;52.070;20.804;2023-07-29T04:42:52;99842.25;;;16.79;96.73
75536;BME280;64119;52.070;20.804;2023-07-29T04:45:20;99844.89;;;16.81;96.56
75536;BME280;64119;52.070;20.804;2023-07-29T04:47:47;99848.48;;;16.83;96.56
75536;BME280;64119;52.070;20.804;2023-07-29T04:50:15;99850.20;;;16.87;96.38
75536;BME280;64119;52.070;20.804;2023-07-29T04:52:43;99849.04;;;16.91;96.02
75536;BME280;64119;52.070;20.804;2023-07-29T04:55:11;99851.89;;;16.94;96.07
75536;BME280;64119;52.070;20.804;2023-07-29T04:57:38;99857.44;;;16.99;97.11
75536;BME280;64119;52.070;20.804;2023-07-29T05:00:06;99859.67;;;17.03;97.16
75536;BME280;64119;52.070;20.804;2023-07-29T05:02:34;99861.27;;;17.07;96.96
75536;BME280;64119;52.070;20.804;2023-07-29T05:05:03;99860.96;;;17.11;97.27
75536;BME280;64119;52.070;20.804;2023-07-29T05:07:31;99862.35;;;17.17;97.64
75536;BME280;64119;52.070;20.804;2023-07-29T05:09:59;99860.36;;;17.23;97.15
75536;BME280;64119;52.070;20.804;2023-07-29T05:12:27;99867.42;;;17.29;96.63
75536;BME280;64119;52.070;20.804;2023-07-29T05:14:57;99868.70;;;17.31;96.09
75536;BME280;64119;52.070;20.804;2023-07-29T05:17:25;99869.91;;;17.34;95.94
75536;BME280;64119;52.070;20.804;2023-07-29T05:19:53;99872.04;;;17.37;95.63
75536;BME280;64119;52.070;20.804;2023-07-29T05:22:21;99878.82;;;17.37;95.46
75536;BME280;64119;52.070;20.804;2023-07-29T05:24:49;99878.66;;;17.38;95.09
75536;BME280;64119;52.070;20.804;2023-07-29T05:27:17;99880.60;;;17.35;94.90
75536;BME280;64119;52.070;20.804;2023-07-29T05:29:45;99876.77;;;17.33;95.02
75536;BME280;64119;52.070;20.804;2023-07-29T05:32:12;99880.04;;;17.36;95.51
75536;BME280;64119;52.070;20.804;2023-07-29T05:34:42;99877.85;;;17.44;95.40
75536;BME280;64119;52.070;20.804;2023-07-29T05:37:10;99875.94;;;17.54;97.31
75536;BME280;64119;52.070;20.804;2023-07-29T05:39:37;99866.75;;;17.63;96.05
75536;BME280;64119;52.070;20.804;2023-07-29T05:42:05;99861.62;;;17.64;94.86
75536;BME280;64119;52.070;20.804;2023-07-29T05:44:33;99870.09;;;17.68;94.79
75536;BME280;64119;52.070;20.804;2023-07-29T05:47:01;99872.63;;;17.72;94.38
75536;BME280;64119;52.070;20.804;2023-07-29T05:49:29;99873.52;;;17.75;94.38
75536;BME280;64119;52.070;20.804;2023-07-29T05:51:57;99876.38;;;17.80;93.61
75536;BME280;64119;52.070;20.804;2023-07-29T05:54:26;99878.27;;;17.88;94.58
75536;BME280;64119;52.070;20.804;2023-07-29T05:56:54;99878.48;;;18.00;94.41
75536;BME280;64119;52.070;20.804;2023-07-29T05:59:22;99879.58;;;18.09;93.76
75536;BME280;64119;52.070;20.804;2023-07-29T06:01:50;99882.88;;;18.19;93.34
75536;BME280;64119;52.070;20.804;2023-07-29T06:04:18;99884.84;;;18.30;92.70
75536;BME280;64119;52.070;20.804;2023-07-29T06:06:46;99888.27;;;18.38;91.94
75536;BME280;64119;52.070;20.804;2023-07-29T06:09:13;99888.86;;;18.49;92.54
75536;BME280;64119;52.070;20.804;2023-07-29T06:11:41;99894.02;;;18.64;91.77
75536;BME280;64119;52.070;20.804;2023-07-29T06:14:09;99891.23;;;18.80;92.63
75536;BME280;64119;52.070;20.804;2023-07-29T06:16:37;99893.04;;;18.93;90.93
75536;BME280;64119;52.070;20.804;2023-07-29T06:19:05;99897.11;;;19.07;90.31
75536;BME280;64119;52.070;20.804;2023-07-29T06:21:33;99897.39;;;19.21;89.83
75536;BME280;64119;52.070;20.804;2023-07-29T06:24:01;99902.20;;;19.36;90.23
75536;BME280;64119;52.070;20.804;2023-07-29T06:26:29;99901.98;;;19.45;88.51
75536;BME280;64119;52.070;20.804;2023-07-29T06:28:57;99907.16;;;19.54;87.75
75536;BME280;64119;52.070;20.804;2023-07-29T06:31:25;99912.77;;;19.61;86.67
75536;BME280;64119;52.070;20.804;2023-07-29T06:33:53;99915.77;;;19.61;86.90
75536;BME280;64119;52.070;20.804;2023-07-29T06:36:22;99920.01;;;19.60;88.18
75536;BME280;64119;52.070;20.804;2023-07-29T06:38:50;99921.50;;;19.56;86.80
75536;BME280;64119;52.070;20.804;2023-07-29T06:41:18;99917.30;;;19.44;84.97
75536;BME280;64119;52.070;20.804;2023-07-29T06:43:47;99924.33;;;19.40;86.35
75536;BME280;64119;52.070;20.804;2023-07-29T06:46:15;99920.66;;;19.41;86.93
75536;BME280;64119;52.070;20.804;2023-07-29T06:48:43;99922.04;;;19.46;87.40
75536;BME280;64119;52.070;20.804;2023-07-29T06:51:10;99923.69;;;19.49;86.90
75536;BME280;64119;52.070;20.804;2023-07-29T06:53:38;99927.23;;;19.53;86.61
75536;BME280;64119;52.070;20.804;2023-07-29T06:56:06;99924.52;;;19.58;85.92
75536;BME280;64119;52.070;20.804;2023-07-29T06:58:34;99923.20;;;19.67;83.13
75536;BME280;64119;52.070;20.804;2023-07-29T07:01:02;99921.10;;;19.84;84.41
75536;BME280;64119;52.070;20.804;2023-07-29T07:03:31;99917.73;;;19.99;82.51
75536;BME280;64119;52.070;20.804;2023-07-29T07:05:59;99922.46;;;20.05;82.15
75536;BME280;64119;52.070;20.804;2023-07-29T07:08:27;99915.81;;;20.08;82.35
75536;BME280;64119;52.070;20.804;2023-07-29T07:10:54;99914.75;;;20.20;82.87
75536;BME280;64119;52.070;20.804;2023-07-29T07:13:22;99911.30;;;20.26;83.00
75536;BME280;64119;52.070;20.804;2023-07-29T07:15:50;99911.05;;;20.21;82.14
75536;BME280;64119;52.070;20.804;2023-07-29T07:18:18;99909.10;;;20.14;82.11
75536;BME280;64119;52.070;20.804;2023-07-29T07:20:48;99909.03;;;20.10;82.29
75536;BME280;64119;52.070;20.804;2023-07-29T07:23:17;99911.33;;;20.06;83.10
75536;BME280;64119;52.070;20.804;2023-07-29T07:25:45;99911.21;;;20.06;82.90
75536;BME280;64119;52.070;20.804;2023-07-29T07:28:12;99903.89;;;20.16;82.77
75536;BME280;64119;52.070;20.804;2023-07-29T07:30:41;99901.17;;;20.20;80.51
75536;BME280;64119;52.070;20.804;2023-07-29T07:33:09;99902.51;;;20.35;82.15
75536;BME280;64119;52.070;20.804;2023-07-29T07:35:37;99901.96;;;20.51;81.60
75536;BME280;64119;52.070;20.804;2023-07-29T07:38:05;99902.29;;;20.64;78.82
75536;BME280;64119;52.070;20.804;2023-07-29T07:40:35;99901.95;;;20.79;77.09
75536;BME280;64119;52.070;20.804;2023-07-29T07:43:06;99908.94;;;20.96;76.69
75536;BME280;64119;52.070;20.804;2023-07-29T07:45:34;99909.70;;;21.12;76.60
75536;BME280;64119;52.070;20.804;2023-07-29T07:48:01;99909.02;;;21.32;76.32
75536;BME280;64119;52.070;20.804;2023-07-29T07:50:30;99905.72;;;21.45;76.68
75536;BME280;64119;52.070;20.804;2023-07-29T07:52:58;99907.12;;;21.60;74.00
75536;BME280;64119;52.070;20.804;2023-07-29T07:55:25;99908.39;;;21.77;75.78
75536;BME280;64119;52.070;20.804;2023-07-29T07:57:53;99910.02;;;21.90;74.59
75536;BME280;64119;52.070;20.804;2023-07-29T08:00:21;99909.58;;;22.01;74.33
75536;BME280;64119;52.070;20.804;2023-07-29T08:02:48;99902.72;;;22.13;73.45
75536;BME280;64119;52.070;20.804;2023-07-29T08:05:16;99900.03;;;22.08;70.70
75536;BME280;64119;52.070;20.804;2023-07-29T08:07:45;99905.15;;;21.99;73.08
75536;BME280;64119;52.070;20.804;2023-07-29T08:10:13;99901.98;;;21.91;71.61
75536;BME280;64119;52.070;20.804;2023-07-29T08:12:41;99902.75;;;21.88;72.52
75536;BME280;64119;52.070;20.804;2023-07-29T08:15:08;99900.40;;;21.91;72.57
75536;BME280;64119;52.070;20.804;2023-07-29T08:17:36;99897.89;;;22.03;69.19
75536;BME280;64119;52.070;20.804;2023-07-29T08:23:01;99890.49;;;22.60;70.04
75536;BME280;64119;52.070;20.804;2023-07-29T08:25:28;99894.27;;;22.83;67.71
75536;BME280;64119;52.070;20.804;2023-07-29T08:27:56;99889.35;;;23.00;65.14
75536;BME280;64119;52.070;20.804;2023-07-29T08:30:24;99889.83;;;23.15;64.27
75536;BME280;64119;52.070;20.804;2023-07-29T08:32:52;99887.61;;;23.30;63.42
75536;BME280;64119;52.070;20.804;2023-07-29T08:35:20;99884.90;;;23.45;63.92
75536;BME280;64119;52.070;20.804;2023-07-29T08:37:48;99883.66;;;23.75;65.68
75536;BME280;64119;52.070;20.804;2023-07-29T08:40:16;99880.70;;;23.98;61.92
75536;BME280;64119;52.070;20.804;2023-07-29T08:42:45;99878.75;;;24.10;61.79
75536;BME280;64119;52.070;20.804;2023-07-29T08:45:17;99872.13;;;24.30;62.46
75536;BME280;64119;52.070;20.804;2023-07-29T08:47:45;99871.38;;;24.50;60.69
75536;BME280;64119;52.070;20.804;2023-07-29T08:50:14;99870.76;;;24.67;58.85
75536;BME280;64119;52.070;20.804;2023-07-29T08:52:43;99872.77;;;24.75;57.87
75536;BME280;64119;52.070;20.804;2023-07-29T08:55:12;99873.34;;;24.89;59.52
75536;BME280;64119;52.070;20.804;2023-07-29T08:57:39;99873.23;;;25.14;59.45
75536;BME280;64119;52.070;20.804;2023-07-29T09:00:08;99867.70;;;25.10;57.84
75536;BME280;64119;52.070;20.804;2023-07-29T09:02:36;99868.70;;;24.75;54.90
75536;BME280;64119;52.070;20.804;2023-07-29T09:05:05;99868.66;;;24.74;56.93
75536;BME280;64119;52.070;20.804;2023-07-29T09:07:34;99871.02;;;25.03;59.67
75536;BME280;64119;52.070;20.804;2023-07-29T09:10:03;99865.30;;;25.45;56.88
75536;BME280;64119;52.070;20.804;2023-07-29T09:12:31;99868.56;;;25.84;57.67
75536;BME280;64119;52.070;20.804;2023-07-29T09:14:58;99865.17;;;26.05;53.13
75536;BME280;64119;52.070;20.804;2023-07-29T09:17:31;99864.85;;;25.99;53.70
75536;BME280;64119;52.070;20.804;2023-07-29T09:19:59;99866.85;;;25.85;54.64
75536;BME280;64119;52.070;20.804;2023-07-29T09:22:27;99865.06;;;25.93;54.60
75536;BME280;64119;52.070;20.804;2023-07-29T09:24:57;99859.94;;;26.14;53.04
75536;BME280;64119;52.070;20.804;2023-07-29T09:27:26;99856.23;;;26.64;53.78
75536;BME280;64119;52.070;20.804;2023-07-29T09:29:55;99856.12;;;27.13;51.89
75536;BME280;64119;52.070;20.804;2023-07-29T09:32:24;99859.48;;;27.34;49.38
75536;BME280;64119;52.070;20.804;2023-07-29T09:34:52;99861.53;;;27.77;52.26
75536;BME280;64119;52.070;20.804;2023-07-29T09:37:21;99855.90;;;28.14;45.29
75536;BME280;64119;52.070;20.804;2023-07-29T09:39:49;99853.45;;;28.32;46.37
75536;BME280;64119;52.070;20.804;2023-07-29T09:42:19;99852.77;;;28.54;47.00
75536;BME280;64119;52.070;20.804;2023-07-29T09:44:50;99852.84;;;28.64;44.82
75536;BME280;64119;52.070;20.804;2023-07-29T09:47:23;99844.77;;;28.42;45.49
75536;BME280;64119;52.070;20.804;2023-07-29T09:49:52;99843.98;;;28.82;45.95
75536;BME280;64119;52.070;20.804;2023-07-29T09:52:22;99839.44;;;29.12;42.40
75536;BME280;64119;52.070;20.804;2023-07-29T09:54:50;99835.95;;;29.30;44.35
75536;BME280;64119;52.070;20.804;2023-07-29T09:57:18;99834.28;;;29.40;42.56
75536;BME280;64119;52.070;20.804;2023-07-29T09:59:54;99828.34;;;29.60;42.26
75536;BME280;64119;52.070;20.804;2023-07-29T10:02:23;99829.06;;;29.75;43.53
75536;BME280;64119;52.070;20.804;2023-07-29T10:04:53;99824.70;;;30.13;41.60
75536;BME280;64119;52.070;20.804;2023-07-29T10:07:22;99819.85;;;30.39;43.20
75536;BME280;64119;52.070;20.804;2023-07-29T10:09:51;99817.45;;;30.16;39.28
75536;BME280;64119;52.070;20.804;2023-07-29T10:12:20;99817.95;;;30.09;40.77
75536;BME280;64119;52.070;20.804;2023-07-29T10:14:50;99822.30;;;30.06;41.09
75536;BME280;64119;52.070;20.804;2023-07-29T10:17:18;99821.24;;;30.01;41.25
75536;BME280;64119;52.070;20.804;2023-07-29T10:19:47;99819.55;;;30.53;43.17
75536;BME280;64119;52.070;20.804;2023-07-29T10:22:20;99817.12;;;30.94;40.75
75536;BME280;64119;52.070;20.804;2023-07-29T10:24:48;99812.42;;;30.99;38.70
75536;BME280;64119;52.070;20.804;2023-07-29T10:27:18;99812.37;;;31.12;38.62
75536;BME280;64119;52.070;20.804;2023-07-29T10:29:47;99811.41;;;31.23;37.77
75536;BME280;64119;52.070;20.804;2023-07-29T10:32:15;99807.92;;;31.28;38.54
75536;BME280;64119;52.070;20.804;2023-07-29T10:34:43;99806.85;;;31.09;37.94
75536;BME280;64119;52.070;20.804;2023-07-29T10:37:11;99803.00;;;30.77;39.05
75536;BME280;64119;52.070;20.804;2023-07-29T10:39:40;99798.31;;;30.75;38.66
75536;BME280;64119;52.070;20.804;2023-07-29T10:42:08;99794.96;;;30.84;38.31
75536;BME280;64119;52.070;20.804;2023-07-29T10:47:14;99795.31;;;30.24;40.27
75536;BME280;64119;52.070;20.804;2023-07-29T10:49:46;99799.89;;;29.97;39.22
75536;BME280;64119;52.070;20.804;2023-07-29T10:52:16;99801.12;;;29.74;40.08
75536;BME280;64119;52.070;20.804;2023-07-29T10:54:46;99801.23;;;29.58;39.96
75536;BME280;64119;52.070;20.804;2023-07-29T10:57:48;99803.43;;;29.36;40.30
75536;BME280;64119;52.070;20.804;2023-07-29T11:00:09;99794.57;;;29.33;40.53
75536;BME280;64119;52.070;20.804;2023-07-29T11:02:38;99794.02;;;29.12;41.97
75536;BME280;64119;52.070;20.804;2023-07-29T11:05:08;99792.74;;;29.01;42.26
75536;BME280;64119;52.070;20.804;2023-07-29T11:07:48;99791.48;;;28.99;41.33
75536;BME280;64119;52.070;20.804;2023-07-29T11:10:16;99791.41;;;29.06;42.50
75536;BME280;64119;52.070;20.804;2023-07-29T11:12:48;99786.66;;;29.53;41.43
75536;BME280;64119;52.070;20.804;2023-07-29T11:15:28;99784.51;;;29.50;42.59
75536;BME280;64119;52.070;20.804;2023-07-29T11:17:58;99780.45;;;29.45;44.00
75536;BME280;64119;52.070;20.804;2023-07-29T11:20:31;99775.17;;;29.68;42.00
75536;BME280;64119;52.070;20.804;2023-07-29T11:23:01;99771.54;;;30.28;39.51
75536;BME280;64119;52.070;20.804;2023-07-29T11:25:30;99771.74;;;30.59;39.05
75536;BME280;64119;52.070;20.804;2023-07-29T11:28:00;99765.34;;;31.08;39.50
75536;BME280;64119;52.070;20.804;2023-07-29T11:30:33;99761.05;;;31.31;39.02
75536;BME280;64119;52.070;20.804;2023-07-29T11:33:02;99755.90;;;31.57;38.37
75536;BME280;64119;52.070;20.804;2023-07-29T11:35:31;99755.09;;;31.97;38.76
75536;BME280;64119;52.070;20.804;2023-07-29T11:37:59;99749.45;;;32.09;38.54
75536;BME280;64119;52.070;20.804;2023-07-29T11:40:27;99744.27;;;32.38;38.54
75536;BME280;64119;52.070;20.804;2023-07-29T11:42:55;99741.48;;;32.61;38.06
75536;BME280;64119;52.070;20.804;2023-07-29T11:45:23;99739.20;;;32.96;36.05
75536;BME280;64119;52.070;20.804;2023-07-29T11:48:02;99739.70;;;33.21;36.39
75536;BME280;64119;52.070;20.804;2023-07-29T11:50:30;99733.39;;;33.65;35.14
75536;BME280;64119;52.070;20.804;2023-07-29T11:52:58;99732.27;;;33.75;35.00
75536;BME280;64119;52.070;20.804;2023-07-29T11:55:26;99727.16;;;33.62;34.31
75536;BME280;64119;52.070;20.804;2023-07-29T11:57:54;99728.00;;;33.58;34.70
75536;BME280;64119;52.070;20.804;2023-07-29T12:00:22;99725.02;;;33.36;34.17
75536;BME280;64119;52.070;20.804;2023-07-29T12:02:53;99721.45;;;33.02;34.52
75536;BME280;64119;52.070;20.804;2023-07-29T12:05:22;99710.90;;;32.61;35.38
75536;BME280;64119;52.070;20.804;2023-07-29T12:07:50;99708.42;;;32.53;35.86
75536;BME280;64119;52.070;20.804;2023-07-29T12:10:18;99703.31;;;32.53;35.18
75536;BME280;64119;52.070;20.804;2023-07-29T12:12:49;99700.91;;;32.15;36.97
75536;BME280;64119;52.070;20.804;2023-07-29T12:15:25;99699.50;;;32.09;36.39
75536;BME280;64119;52.070;20.804;2023-07-29T12:17:55;99702.23;;;31.97;36.39
75536;BME280;64119;52.070;20.804;2023-07-29T12:20:25;99696.80;;;31.79;36.60
75536;BME280;64119;52.070;20.804;2023-07-29T12:22:55;99699.47;;;31.49;37.96
75536;BME280;64119;52.070;20.804;2023-07-29T12:25:24;99691.73;;;31.19;37.80
75536;BME280;64119;52.070;20.804;2023-07-29T12:27:53;99684.39;;;30.95;39.10
75536;BME280;64119;52.070;20.804;2023-07-29T12:30:23;99683.33;;;30.94;38.17
75536;BME280;64119;52.070;20.804;2023-07-29T12:32:53;99682.95;;;30.81;38.43
75536;BME280;64119;52.070;20.804;2023-07-29T12:35:21;99683.97;;;30.64;38.83
75536;BME280;64119;52.070;20.804;2023-07-29T12:37:59;99683.24;;;30.38;39.50
75536;BME280;64119;52.070;20.804;2023-07-29T12:40:27;99679.79;;;30.14;39.89
75536;BME280;64119;52.070;20.804;2023-07-29T12:42:56;99677.39;;;30.15;40.24
75536;BME280;64119;52.070;20.804;2023-07-29T12:45:24;99677.73;;;30.05;40.72
75536;BME280;64119;52.070;20.804;2023-07-29T12:47:56;99675.59;;;29.96;40.25
75536;BME280;64119;52.070;20.804;2023-07-29T12:50:23;99668.08;;;29.66;40.70
75536;BME280;64119;52.070;20.804;2023-07-29T12:52:51;99661.27;;;29.40;42.06
75536;BME280;64119;52.070;20.804;2023-07-29T12:55:19;99664.48;;;29.33;41.65
75536;BME280;64119;52.070;20.804;2023-07-29T12:57:50;99665.51;;;29.34;42.13
75536;BME280;64119;52.070;20.804;2023-07-29T13:00:19;99659.89;;;29.45;41.17
75536;BME280;64119;52.070;20.804;2023-07-29T13:02:47;99659.69;;;29.52;41.31
75536;BME280;64119;52.070;20.804;2023-07-29T13:05:15;99660.01;;;29.64;40.87
75536;BME280;64119;52.070;20.804;2023-07-29T13:07:43;99659.10;;;29.65;40.98
75536;BME280;64119;52.070;20.804;2023-07-29T13:10:11;99653.50;;;29.44;41.78
75536;BME280;64119;52.070;20.804;2023-07-29T13:12:40;99661.41;;;29.23;41.73
75536;BME280;64119;52.070;20.804;2023-07-29T13:15:08;99657.94;;;29.24;41.78